createdAt,value
2023-04-14T00:00:26.436Z,5.70
2023-04-14T00:05:29.781Z,5.60
2023-04-14T00:10:32.253Z,5.60
2023-04-14T00:15:34.057Z,5.60
2023-04-14T00:20:35.848Z,5.60
2023-04-14T00:25:37.580Z,5.70
2023-04-14T00:30:39.330Z,5.70
2023-04-14T00:35:41.122Z,5.70
2023-04-14T00:40:42.987Z,5.70
2023-04-14T00:45:47.200Z,5.70
2023-04-14T00:50:49.204Z,5.70
2023-04-14T00:55:51.604Z,5.70
2023-04-14T01:00:55.566Z,5.70
2023-04-14T01:05:57.504Z,5.70
2023-04-14T01:11:22.265Z,5.80
2023-04-14T01:16:31.672Z,5.80
2023-04-14T01:21:38.365Z,5.70
2023-04-14T01:26:42.438Z,5.70
2023-04-14T01:31:50.563Z,5.60
2023-04-14T01:37:02.161Z,5.50
2023-04-14T01:42:09.088Z,5.50
2023-04-14T01:47:15.313Z,5.50
2023-04-14T01:52:19.240Z,5.60
2023-04-14T01:57:23.067Z,5.60
2023-04-14T02:02:27.519Z,5.60
2023-04-14T02:07:31.124Z,5.50
2023-04-14T02:12:33.447Z,5.50
2023-04-14T02:17:35.923Z,5.50
2023-04-14T02:22:40.984Z,5.50
2023-04-14T02:27:58.717Z,5.50
2023-04-14T02:33:07.995Z,5.40
2023-04-14T02:38:19.191Z,5.40
2023-04-14T02:43:30.858Z,5.30
2023-04-14T02:48:36.048Z,5.40
2023-04-14T02:53:38.693Z,5.40
2023-04-14T02:58:52.483Z,5.30
2023-04-14T03:03:57.309Z,5.30
2023-04-14T03:09:01.375Z,5.20
2023-04-14T03:14:07.004Z,5.20
2023-04-14T03:19:13.086Z,5.20
2023-04-14T03:24:24.424Z,5.10
2023-04-14T03:29:34.351Z,5.10
2023-04-14T03:34:40.926Z,5.00
2023-04-14T03:39:45.611Z,5.00
2023-04-14T03:44:53.255Z,5.00
2023-04-14T03:49:59.730Z,4.90
2023-04-14T03:55:06.741Z,4.90
2023-04-14T04:00:12.423Z,4.80
2023-04-14T04:05:21.804Z,4.80
2023-04-14T04:10:24.137Z,4.70
2023-04-14T04:15:28.889Z,4.70
2023-04-14T04:20:32.844Z,4.70
2023-04-14T04:25:37.824Z,4.60
2023-04-14T04:30:52.751Z,4.60
2023-04-14T04:35:57.219Z,4.60
2023-04-14T04:41:05.649Z,4.60
2023-04-14T04:46:38.886Z,4.60
2023-04-14T04:51:41.076Z,4.60
2023-04-14T04:56:42.989Z,4.60
2023-04-14T05:01:45.038Z,4.60
2023-04-14T05:06:46.838Z,4.50
2023-04-14T05:11:48.640Z,4.50
2023-04-14T05:16:50.559Z,4.50
2023-04-14T05:21:52.350Z,4.50
2023-04-14T05:27:12.333Z,4.50
2023-04-14T05:32:15.760Z,4.50
2023-04-14T05:37:17.799Z,4.60
2023-04-14T05:42:19.612Z,4.60
2023-04-14T05:47:21.393Z,4.70
2023-04-14T05:52:23.294Z,4.70
2023-04-14T05:57:25.485Z,4.70
2023-04-14T06:02:27.525Z,4.80
2023-04-14T06:07:29.323Z,4.80
2023-04-14T06:12:31.240Z,4.90
2023-04-14T06:17:33.619Z,4.90
2023-04-14T06:22:35.655Z,5.00
2023-04-14T06:27:37.569Z,5.10
2023-04-14T06:32:39.351Z,5.10
2023-04-14T06:37:41.107Z,5.10
2023-04-14T06:42:42.894Z,5.20
2023-04-14T06:47:44.774Z,5.20
2023-04-14T06:52:46.665Z,5.10
2023-04-14T06:57:48.792Z,5.20
2023-04-14T07:02:50.654Z,5.10
2023-04-14T07:07:52.582Z,5.00
2023-04-14T07:12:54.388Z,5.10
2023-04-14T07:17:59.790Z,5.20
2023-04-14T07:23:01.852Z,5.20
2023-04-14T07:28:04.694Z,5.30
2023-04-14T07:33:06.613Z,5.30
2023-04-14T07:38:08.766Z,5.30
2023-04-14T07:43:12.449Z,5.40
2023-04-14T07:48:14.242Z,5.40
2023-04-14T07:53:16.195Z,5.50
2023-04-14T07:58:18.298Z,5.60
2023-04-14T08:03:20.304Z,5.60
2023-04-14T08:08:23.099Z,5.70
2023-04-14T08:13:24.922Z,5.70
2023-04-14T08:18:26.870Z,5.80
2023-04-14T08:23:28.816Z,5.80
2023-04-14T08:28:30.685Z,5.80
2023-04-14T08:33:33.899Z,6.00
2023-04-14T08:38:36.849Z,6.00
2023-04-14T08:43:38.966Z,6.00
2023-04-14T08:48:41.916Z,6.00
2023-04-14T08:53:46.512Z,6.00
2023-04-14T08:58:48.674Z,6.10
2023-04-14T09:03:51.132Z,6.10
2023-04-14T09:08:54.107Z,6.10
2023-04-14T09:14:01.088Z,6.20
2023-04-14T09:19:07.549Z,6.20
2023-04-14T09:24:12.144Z,6.30
2023-04-14T09:29:14.119Z,6.40
2023-04-14T09:34:21.607Z,6.50
2023-04-14T09:39:23.456Z,6.50
2023-04-14T09:44:25.512Z,6.70
2023-04-14T09:49:28.166Z,6.70
2023-04-14T09:54:30.304Z,6.80
2023-04-14T09:59:36.887Z,6.90
2023-04-14T10:04:38.964Z,6.80
2023-04-14T10:09:41.731Z,6.90
2023-04-14T10:14:44.356Z,7.00
2023-04-14T10:19:46.766Z,7.10
2023-04-14T10:24:51.283Z,7.10
2023-04-14T10:29:54.008Z,7.10
2023-04-14T10:35:08.835Z,7.00
2023-04-14T10:40:10.743Z,7.00
2023-04-14T10:45:12.935Z,6.90
2023-04-14T10:50:19.638Z,6.90
2023-04-14T10:55:26.222Z,6.90
2023-04-14T11:00:30.050Z,6.90
2023-04-14T11:05:35.815Z,6.90
2023-04-14T11:10:38.350Z,6.90
2023-04-14T11:16:06.871Z,6.90
2023-04-14T11:21:09.783Z,6.90
2023-04-14T11:26:13.982Z,6.90
2023-04-14T11:31:17.398Z,6.90
2023-04-14T11:36:19.259Z,6.90
2023-04-14T11:41:22.268Z,7.00
2023-04-14T11:46:24.447Z,7.00
2023-04-14T11:51:33.780Z,7.20
2023-04-14T11:56:35.992Z,7.20
2023-04-14T12:01:39.444Z,7.30
2023-04-14T12:06:41.338Z,7.30
2023-04-14T12:11:53.852Z,7.30
2023-04-14T12:16:55.959Z,7.30
2023-04-14T12:21:58.206Z,7.40
2023-04-14T12:27:00.693Z,7.30
2023-04-14T12:32:09.857Z,7.30
2023-04-14T12:37:12.746Z,7.30
2023-04-14T12:42:15.660Z,7.40
2023-04-14T12:47:30.272Z,7.40
2023-04-14T12:52:38.322Z,7.40
2023-04-14T12:57:40.169Z,7.50
2023-04-14T13:02:43.568Z,7.60
2023-04-14T13:07:47.402Z,7.60
2023-04-14T13:12:50.114Z,7.70
2023-04-14T13:17:52.330Z,7.80
2023-04-14T13:23:03.840Z,7.90
2023-04-14T13:28:12.135Z,7.90
2023-04-14T13:33:16.505Z,8.10
2023-04-14T13:38:20.089Z,8.10
2023-04-14T13:43:23.375Z,8.10
2023-04-14T13:48:26.114Z,8.10
2023-04-14T13:53:35.843Z,8.30
2023-04-14T13:58:40.911Z,8.20
2023-04-14T14:03:49.641Z,8.10
2023-04-14T14:09:09.170Z,8.00
2023-04-14T14:14:16.544Z,8.10
2023-04-14T14:19:19.536Z,8.20
2023-04-14T14:24:25.534Z,8.20
2023-04-14T14:29:33.128Z,8.10
2023-04-14T14:34:38.880Z,8.00
2023-04-14T14:39:41.462Z,8.00
2023-04-14T14:44:43.869Z,8.00
2023-04-14T14:49:56.767Z,8.00
2023-04-14T14:55:03.497Z,7.90
2023-04-14T15:00:08.526Z,8.00
2023-04-14T15:05:10.427Z,8.10
2023-04-14T15:10:12.418Z,8.30
2023-04-14T15:15:14.244Z,8.30
2023-04-14T15:20:16.370Z,8.30
2023-04-14T15:25:18.507Z,8.30
2023-04-14T15:30:23.578Z,8.30
2023-04-14T15:35:26.398Z,8.20
2023-04-14T15:40:28.211Z,8.10
2023-04-14T15:45:29.948Z,8.00
2023-04-14T15:50:31.750Z,8.00
2023-04-14T15:55:33.471Z,7.80
2023-04-14T16:00:35.338Z,7.70
2023-04-14T16:05:37.123Z,7.60
2023-04-14T16:10:42.732Z,7.60
2023-04-14T16:15:45.836Z,7.60
2023-04-14T16:20:50.068Z,7.60
2023-04-14T16:25:52.112Z,7.70
2023-04-14T16:30:53.884Z,7.70
2023-04-14T16:35:58.602Z,7.70
2023-04-14T16:41:02.106Z,7.60
2023-04-14T16:46:05.226Z,7.50
2023-04-14T16:51:11.288Z,7.50
2023-04-14T16:56:13.292Z,7.50
2023-04-14T17:01:15.375Z,7.40
2023-04-14T17:06:17.277Z,7.40
2023-04-14T17:11:20.246Z,7.40
2023-04-14T17:16:22.648Z,7.20
2023-04-14T17:21:26.365Z,7.10
2023-04-14T17:26:28.172Z,7.20
2023-04-14T17:31:30.680Z,7.00
2023-04-14T17:36:32.576Z,7.00
2023-04-14T17:41:34.595Z,6.90
2023-04-14T17:46:36.426Z,6.90
2023-04-14T17:51:38.336Z,6.80
2023-04-14T17:56:40.162Z,6.70
2023-04-14T18:01:42.250Z,6.60
2023-04-14T18:06:44.136Z,6.60
2023-04-14T18:11:46.278Z,6.50
2023-04-14T18:16:50.248Z,6.40
2023-04-14T18:21:52.185Z,6.40
2023-04-14T18:26:54.070Z,6.30
2023-04-14T18:31:56.618Z,6.30
2023-04-14T18:36:58.403Z,6.20
2023-04-14T18:42:01.106Z,6.20
2023-04-14T18:47:02.895Z,6.10
2023-04-14T18:52:05.760Z,6.10
2023-04-14T18:57:07.752Z,6.10
2023-04-14T19:02:13.207Z,6.10
2023-04-14T19:07:15.032Z,6.00
2023-04-14T19:12:27.633Z,6.00
2023-04-14T19:17:35.866Z,6.00
2023-04-14T19:22:37.742Z,6.00
2023-04-14T19:27:42.807Z,6.00
2023-04-14T19:32:46.062Z,5.90
2023-04-14T19:37:47.850Z,5.90
2023-04-14T19:42:49.669Z,5.90
2023-04-14T19:47:51.661Z,5.90
2023-04-14T19:52:53.959Z,5.90
2023-04-14T19:57:56.138Z,5.90
2023-04-14T20:02:58.078Z,5.80
2023-04-14T20:07:59.882Z,5.80
2023-04-14T20:13:01.950Z,5.80
2023-04-14T20:18:04.619Z,5.80
2023-04-14T20:23:07.187Z,5.80
2023-04-14T20:28:09.139Z,5.70
2023-04-14T20:33:11.305Z,5.80
2023-04-14T20:38:15.362Z,5.80
2023-04-14T20:43:17.405Z,5.80
2023-04-14T20:48:19.481Z,5.70
2023-04-14T20:53:22.710Z,5.70
2023-04-14T20:58:24.787Z,5.70
2023-04-14T21:03:27.798Z,5.70
2023-04-14T21:08:29.869Z,5.70
2023-04-14T21:15:26.879Z,5.70
2023-04-14T21:18:53.592Z,5.60
2023-04-14T21:23:55.740Z,5.60
2023-04-14T21:28:57.833Z,5.70
2023-04-14T21:34:00.273Z,5.70
2023-04-14T21:39:04.128Z,5.70
2023-04-14T21:44:06.751Z,5.70
2023-04-14T21:49:08.630Z,5.70
2023-04-14T21:54:13.555Z,5.70
2023-04-14T21:59:15.346Z,5.70
2023-04-14T22:04:28.697Z,5.70
2023-04-14T22:09:37.448Z,5.70
2023-04-14T22:14:39.583Z,5.60
2023-04-14T22:19:41.597Z,5.70
2023-04-14T22:24:43.604Z,5.70
2023-04-14T22:29:45.355Z,5.70
2023-04-14T22:34:47.147Z,5.80
2023-04-14T22:39:49.068Z,5.70
2023-04-14T22:44:51.258Z,5.80
2023-04-14T22:49:53.099Z,5.70
2023-04-14T22:54:54.834Z,5.70
2023-04-14T22:59:56.542Z,5.70
2023-04-14T23:04:58.497Z,5.70
2023-04-14T23:10:00.595Z,5.70
2023-04-14T23:15:06.691Z,5.70
2023-04-14T23:20:08.990Z,5.70
2023-04-14T23:25:10.763Z,5.70
2023-04-14T23:30:12.913Z,5.70
2023-04-14T23:35:14.795Z,5.70
2023-04-14T23:40:16.666Z,5.60
2023-04-14T23:45:18.466Z,5.70
2023-04-14T23:50:59.625Z,5.70
2023-04-14T23:55:47.611Z,5.70
